Titan — WDG3294 — position and weather

sailwx.info

Track history (hours):
 
Tides and Currents Weather Stations Pressure Air Temp Water Temp Dewpoint Dewpoint Depression Visibility Wind Speed Wind Dir Waves Ship Positions

Titan

Owner: Titan Fishing, LLC, New Bedford, MA. More information available from US FCC via Universal Licensing System and Coast Guard Vessel Documentation Center.

Last reported at 2015-Aug-20 19:33 UTC. Time now 2015-Aug-28 12:47 UTC.
Position N 41°45' W 070°35'.

; draft 4 m.

Type: Other ship. MMSI: 367524560.

Date/timePositionNaut miles runAvg speedWind from/ knotsBaromVisibWave heightAir tempDewpointWater temp
2015-Aug-20 19:33N 41°45' W 070°35'8 7.6
2015-Aug-20 18:26N 41°39' W 070°43'8 8.8
2015-Aug-20 17:33N 41°34' W 070°50'5 0.2
2015-Aug-19 05:09N 41°38' W 070°55'0 0.0
2015-Aug-19 03:27N 41°38' W 070°55'0 0.0
2015-Aug-19 00:18N 41°38' W 070°55'0 0.0
2015-Aug-18 23:33N 41°38' W 070°55'0 0.0
2015-Aug-18 22:23N 41°38' W 070°55'0 0.0
2015-Aug-18 21:32N 41°38' W 070°55'  
2015-Aug-15 09:32N 41°38' W 070°55'0 0.0
2015-Aug-15 08:33N 41°38' W 070°55'0 0.0
2015-Aug-15 07:33N 41°38' W 070°55'0 0.0
2015-Aug-15 03:09N 41°38' W 070°55'0 0.0
2015-Aug-15 02:27N 41°38' W 070°55'0 0.0
2015-Aug-15 01:33N 41°38' W 070°55'0 0.0
2015-Aug-15 00:33N 41°38' W 070°55'0 0.0
2015-Aug-14 23:30N 41°38' W 070°55'0 0.0
2015-Aug-14 06:07N 41°38' W 070°55'5 0.2
2015-Aug-13 03:26N 41°33' W 070°53'7 7.6
2015-Aug-13 02:33N 41°28' W 070°59'8 8.4
2015-Aug-13 01:33N 41°26' W 071°09'9 8.7
2015-Aug-13 00:33N 41°25' W 071°21'8 7.4
2015-Aug-12 23:33N 41°33' W 071°24'4 4.4
2015-Aug-12 22:33N 41°37' W 071°24'0 0.0
2015-Aug-12 21:32N 41°37' W 071°24'0 0.0
2015-Aug-12 20:33N 41°37' W 071°24'0 0.0
2015-Aug-12 19:32N 41°37' W 071°24'0 0.0
2015-Aug-12 18:33N 41°37' W 071°24'0 0.0
2015-Aug-12 17:31N 41°37' W 071°24'0 0.0
2015-Aug-12 16:32N 41°37' W 071°24'0 0.0
2015-Aug-12 15:32N 41°37' W 071°24'0 0.0
2015-Aug-12 14:33N 41°37' W 071°24'0 0.0
2015-Aug-12 13:33N 41°37' W 071°24'0 0.0
2015-Aug-12 12:33N 41°37' W 071°24'0 0.0
2015-Aug-12 11:33N 41°37' W 071°24'0 0.0
2015-Aug-12 10:33N 41°37' W 071°24'0 0.0
2015-Aug-12 09:33N 41°37' W 071°24'0 0.0
2015-Aug-12 08:31N 41°37' W 071°24'0 0.0
2015-Aug-12 07:32N 41°37' W 071°24'0 0.0
2015-Aug-12 06:33N 41°37' W 071°24'0 0.0
2015-Aug-12 05:33N 41°37' W 071°24'0 0.0
2015-Aug-12 04:32N 41°37' W 071°24'10 0.9
2015-Aug-11 17:32N 41°27' W 071°24'10 8.2
2015-Aug-11 16:16N 41°26' W 071°11'  
Track history (hours):
 
Tides and Currents Weather Stations Pressure Air Temp Water Temp Dewpoint Dewpoint Depression Visibility Wind Speed Wind Dir Waves Ship Positions

Titan

Owner: Titan Fishing, LLC, New Bedford, MA. More information available from US FCC via Universal Licensing System and Coast Guard Vessel Documentation Center.

Last reported at 2015-Aug-20 19:33 UTC. Time now 2015-Aug-28 12:47 UTC.
Position N 41°45' W 070°35'.

; draft 4 m.

Type: Other ship. MMSI: 367524560.

Date/timePositionNaut miles runAvg speedWind from/ knotsBaromVisibWave heightAir tempDewpointWater temp
2015-Aug-20 19:33N 41°45' W 070°35'8 7.6
2015-Aug-20 18:26N 41°39' W 070°43'8 8.8
2015-Aug-20 17:33N 41°34' W 070°50'5 0.2
2015-Aug-19 05:09N 41°38' W 070°55'0 0.0
2015-Aug-19 03:27N 41°38' W 070°55'0 0.0
2015-Aug-19 00:18N 41°38' W 070°55'0 0.0
2015-Aug-18 23:33N 41°38' W 070°55'0 0.0
2015-Aug-18 22:23N 41°38' W 070°55'0 0.0
2015-Aug-18 21:32N 41°38' W 070°55'  
2015-Aug-15 09:32N 41°38' W 070°55'0 0.0
2015-Aug-15 08:33N 41°38' W 070°55'0 0.0
2015-Aug-15 07:33N 41°38' W 070°55'0 0.0
2015-Aug-15 03:09N 41°38' W 070°55'0 0.0
2015-Aug-15 02:27N 41°38' W 070°55'0 0.0
2015-Aug-15 01:33N 41°38' W 070°55'0 0.0
2015-Aug-15 00:33N 41°38' W 070°55'0 0.0
2015-Aug-14 23:30N 41°38' W 070°55'0 0.0
2015-Aug-14 06:07N 41°38' W 070°55'5 0.2
2015-Aug-13 03:26N 41°33' W 070°53'7 7.6
2015-Aug-13 02:33N 41°28' W 070°59'8 8.4
2015-Aug-13 01:33N 41°26' W 071°09'9 8.7
2015-Aug-13 00:33N 41°25' W 071°21'8 7.4
2015-Aug-12 23:33N 41°33' W 071°24'4 4.4
2015-Aug-12 22:33N 41°37' W 071°24'0 0.0
2015-Aug-12 21:32N 41°37' W 071°24'0 0.0
2015-Aug-12 20:33N 41°37' W 071°24'0 0.0
2015-Aug-12 19:32N 41°37' W 071°24'0 0.0
2015-Aug-12 18:33N 41°37' W 071°24'0 0.0
2015-Aug-12 17:31N 41°37' W 071°24'0 0.0
2015-Aug-12 16:32N 41°37' W 071°24'0 0.0
2015-Aug-12 15:32N 41°37' W 071°24'0 0.0
2015-Aug-12 14:33N 41°37' W 071°24'0 0.0
2015-Aug-12 13:33N 41°37' W 071°24'0 0.0
2015-Aug-12 12:33N 41°37' W 071°24'0 0.0
2015-Aug-12 11:33N 41°37' W 071°24'0 0.0
2015-Aug-12 10:33N 41°37' W 071°24'0 0.0
2015-Aug-12 09:33N 41°37' W 071°24'0 0.0
2015-Aug-12 08:31N 41°37' W 071°24'0 0.0
2015-Aug-12 07:32N 41°37' W 071°24'0 0.0
2015-Aug-12 06:33N 41°37' W 071°24'0 0.0
2015-Aug-12 05:33N 41°37' W 071°24'0 0.0
2015-Aug-12 04:32N 41°37' W 071°24'10 0.9
2015-Aug-11 17:32N 41°27' W 071°24'10 8.2
2015-Aug-11 16:16N 41°26' W 071°11'  

Dump ship's entire track history